Terminal Aerodrome Forecast
Issued by NWS Twin Cities, MN

Home | Current Version | Previous Version | Text Only | Print | Product List | Glossary On
Versions: 1 2 3 4 5 6 7 8 9 10 11 12 13 14 15 16 17 18 19 20 21
000
FTUS43 KMPX 220243 AAA
TAFSTC
TAF AMD
KSTC 220243Z 2203/2224 VRB03KT P6SM -SHRA VCTS SCT050 BKN090CB
      TEMPO 2203/2204 02015G25KT 5SM -TSRA SCT025CB OVC040
     FM220500 VRB03KT P6SM BKN080
     FM220900 34005KT 2SM BR BKN010
     FM221600 32006KT P6SM BKN040 BKN090=

USA.gov is the U.S. government's official web portal to all federal, state and local government web resources and services.